sensor_id;sensor_type;location;lat;lon;timestamp;pressure;altitude;pressure_sealevel;temperature;humidity
27334;BME280;14817;57.104;-2.094;2023-02-28T00:01:05;102913.19;;;5.26;100.00
27334;BME280;14817;57.104;-2.094;2023-02-28T00:03:32;102915.94;;;5.25;100.00
27334;BME280;14817;57.104;-2.094;2023-02-28T00:06:03;102925.75;;;5.23;100.00
27334;BME280;14817;57.104;-2.094;2023-02-28T00:08:31;102925.06;;;5.40;100.00
27334;BME280;14817;57.104;-2.094;2023-02-28T00:11:05;102921.75;;;5.35;100.00
27334;BME280;14817;57.104;-2.094;2023-02-28T00:13:34;102918.34;;;5.31;100.00
27334;BME280;14817;57.104;-2.094;2023-02-28T00:16:08;102920.19;;;5.29;100.00
27334;BME280;14817;57.104;-2.094;2023-02-28T00:18:36;102920.50;;;5.21;100.00
27334;BME280;14817;57.104;-2.094;2023-02-28T00:21:03;102920.53;;;5.20;100.00
27334;BME280;14817;57.104;-2.094;2023-02-28T00:23:30;102927.66;;;5.19;100.00
27334;BME280;14817;57.104;-2.094;2023-02-28T00:25:57;102926.94;;;5.14;100.00
27334;BME280;14817;57.104;-2.094;2023-02-28T00:28:24;102927.53;;;5.22;100.00
27334;BME280;14817;57.104;-2.094;2023-02-28T00:30:51;102930.13;;;5.24;100.00
27334;BME280;14817;57.104;-2.094;2023-02-28T00:33:18;102928.22;;;5.27;100.00
27334;BME280;14817;57.104;-2.094;2023-02-28T00:35:46;102922.16;;;5.24;100.00
27334;BME280;14817;57.104;-2.094;2023-02-28T00:38:14;102931.06;;;5.23;100.00
27334;BME280;14817;57.104;-2.094;2023-02-28T00:40:41;102925.97;;;5.17;100.00
27334;BME280;14817;57.104;-2.094;2023-02-28T00:43:10;102927.41;;;5.25;100.00
27334;BME280;14817;57.104;-2.094;2023-02-28T00:45:37;102932.91;;;5.21;100.00
27334;BME280;14817;57.104;-2.094;2023-02-28T00:48:04;102930.34;;;5.18;100.00
27334;BME280;14817;57.104;-2.094;2023-02-28T00:50:31;102926.06;;;5.14;100.00
27334;BME280;14817;57.104;-2.094;2023-02-28T00:52:58;102920.50;;;5.21;100.00
27334;BME280;14817;57.104;-2.094;2023-02-28T00:55:25;102921.56;;;5.16;100.00
27334;BME280;14817;57.104;-2.094;2023-02-28T00:57:52;102924.47;;;5.09;100.00
27334;BME280;14817;57.104;-2.094;2023-02-28T01:00:19;102929.72;;;5.11;100.00
27334;BME280;14817;57.104;-2.094;2023-02-28T01:02:46;102919.38;;;5.03;100.00
27334;BME280;14817;57.104;-2.094;2023-02-28T01:05:13;102921.34;;;4.98;100.00
27334;BME280;14817;57.104;-2.094;2023-02-28T01:07:40;102931.22;;;4.95;100.00
27334;BME280;14817;57.104;-2.094;2023-02-28T01:10:08;102933.69;;;4.99;100.00
27334;BME280;14817;57.104;-2.094;2023-02-28T01:12:35;102938.09;;;5.00;100.00
27334;BME280;14817;57.104;-2.094;2023-02-28T01:15:01;102937.50;;;4.92;100.00
27334;BME280;14817;57.104;-2.094;2023-02-28T01:17:28;102941.81;;;4.95;100.00
27334;BME280;14817;57.104;-2.094;2023-02-28T01:19:55;102936.69;;;4.90;100.00
27334;BME280;14817;57.104;-2.094;2023-02-28T01:22:24;102941.13;;;4.89;100.00
27334;BME280;14817;57.104;-2.094;2023-02-28T01:24:51;102939.56;;;4.84;100.00
27334;BME280;14817;57.104;-2.094;2023-02-28T01:27:17;102934.47;;;4.78;100.00
27334;BME280;14817;57.104;-2.094;2023-02-28T01:29:44;102939.78;;;4.78;100.00
27334;BME280;14817;57.104;-2.094;2023-02-28T01:32:11;102931.59;;;4.84;100.00
27334;BME280;14817;57.104;-2.094;2023-02-28T01:34:38;102940.72;;;4.77;100.00
27334;BME280;14817;57.104;-2.094;2023-02-28T01:37:04;102939.69;;;4.81;100.00
27334;BME280;14817;57.104;-2.094;2023-02-28T01:39:31;102934.59;;;4.75;100.00
27334;BME280;14817;57.104;-2.094;2023-02-28T01:41:58;102933.75;;;4.74;100.00
27334;BME280;14817;57.104;-2.094;2023-02-28T01:47:36;102939.66;;;4.82;100.00
27334;BME280;14817;57.104;-2.094;2023-02-28T01:50:09;102940.72;;;4.77;100.00
27334;BME280;14817;57.104;-2.094;2023-02-28T01:52:38;102933.44;;;4.82;100.00
27334;BME280;14817;57.104;-2.094;2023-02-28T01:55:06;102935.41;;;4.77;100.00
27334;BME280;14817;57.104;-2.094;2023-02-28T01:57:38;102936.09;;;4.82;100.00
27334;BME280;14817;57.104;-2.094;2023-02-28T02:00:10;102936.56;;;4.69;100.00
27334;BME280;14817;57.104;-2.094;2023-02-28T02:02:45;102946.94;;;4.76;100.00
27334;BME280;14817;57.104;-2.094;2023-02-28T02:05:19;102944.22;;;4.77;100.00
27334;BME280;14817;57.104;-2.094;2023-02-28T02:07:49;102942.72;;;4.70;100.00
27334;BME280;14817;57.104;-2.094;2023-02-28T02:10:20;102935.66;;;4.69;100.00
27334;BME280;14817;57.104;-2.094;2023-02-28T02:15:36;102944.53;;;4.69;100.00
27334;BME280;14817;57.104;-2.094;2023-02-28T02:29:57;102941.91;;;4.68;100.00
27334;BME280;14817;57.104;-2.094;2023-02-28T02:32:33;102939.69;;;4.81;100.00
27334;BME280;14817;57.104;-2.094;2023-02-28T02:35:25;102939.94;;;4.73;100.00
27334;BME280;14817;57.104;-2.094;2023-02-28T02:41:28;102933.31;;;4.61;100.00
27334;BME280;14817;57.104;-2.094;2023-02-28T02:43:50;102943.97;;;4.60;100.00
27334;BME280;14817;57.104;-2.094;2023-02-28T02:46:25;102939.53;;;4.60;100.00
27334;BME280;14817;57.104;-2.094;2023-02-28T02:48:56;102938.53;;;4.63;100.00
27334;BME280;14817;57.104;-2.094;2023-02-28T02:51:24;102930.91;;;4.54;100.00
27334;BME280;14817;57.104;-2.094;2023-02-28T02:54:13;102930.56;;;4.63;100.00
27334;BME280;14817;57.104;-2.094;2023-02-28T02:56:44;102932.66;;;4.55;100.00
27334;BME280;14817;57.104;-2.094;2023-02-28T02:59:16;102930.22;;;4.48;100.00
27334;BME280;14817;57.104;-2.094;2023-02-28T03:01:54;102934.50;;;4.53;100.00
27334;BME280;14817;57.104;-2.094;2023-02-28T03:04:25;102924.63;;;4.56;100.00
27334;BME280;14817;57.104;-2.094;2023-02-28T03:06:54;102930.06;;;4.53;100.00
27334;BME280;14817;57.104;-2.094;2023-02-28T03:09:25;102927.72;;;4.44;100.00
27334;BME280;14817;57.104;-2.094;2023-02-28T03:11:54;102928.31;;;4.52;100.00
27334;BME280;14817;57.104;-2.094;2023-02-28T03:20:10;102941.00;;;4.44;100.00
27334;BME280;14817;57.104;-2.094;2023-02-28T03:23:13;102929.19;;;4.53;100.00
27334;BME280;14817;57.104;-2.094;2023-02-28T03:25:59;102935.44;;;4.50;100.00
27334;BME280;14817;57.104;-2.094;2023-02-28T03:28:45;102934.59;;;4.49;100.00
27334;BME280;14817;57.104;-2.094;2023-02-28T03:31:40;102939.19;;;4.44;100.00
27334;BME280;14817;57.104;-2.094;2023-02-28T03:34:12;102944.22;;;4.52;100.00
27334;BME280;14817;57.104;-2.094;2023-02-28T03:36:46;102945.31;;;4.46;100.00
27334;BME280;14817;57.104;-2.094;2023-02-28T03:39:18;102944.22;;;4.52;100.00
27334;BME280;14817;57.104;-2.094;2023-02-28T03:41:57;102941.16;;;4.64;100.00
27334;BME280;14817;57.104;-2.094;2023-02-28T03:44:32;102937.28;;;4.48;100.00
27334;BME280;14817;57.104;-2.094;2023-02-28T03:50:02;102940.06;;;4.45;100.00
27334;BME280;14817;57.104;-2.094;2023-02-28T03:52:30;102946.84;;;4.54;100.00
27334;BME280;14817;57.104;-2.094;2023-02-28T03:55:02;102939.94;;;4.48;100.00
27334;BME280;14817;57.104;-2.094;2023-02-28T04:00:20;102931.34;;;4.41;100.00
27334;BME280;14817;57.104;-2.094;2023-02-28T04:02:48;102942.84;;;4.42;100.00
27334;BME280;14817;57.104;-2.094;2023-02-28T04:05:20;102941.66;;;4.24;100.00
27334;BME280;14817;57.104;-2.094;2023-02-28T04:07:47;102938.84;;;4.28;100.00
27334;BME280;14817;57.104;-2.094;2023-02-28T04:10:15;102935.66;;;4.19;100.00
27334;BME280;14817;57.104;-2.094;2023-02-28T04:12:42;102937.31;;;4.21;100.00
27334;BME280;14817;57.104;-2.094;2023-02-28T04:15:09;102924.94;;;4.22;100.00
27334;BME280;14817;57.104;-2.094;2023-02-28T04:17:37;102932.44;;;4.09;100.00
27334;BME280;14817;57.104;-2.094;2023-02-28T04:20:04;102925.09;;;4.17;100.00
27334;BME280;14817;57.104;-2.094;2023-02-28T04:22:36;102934.00;;;4.15;100.00
27334;BME280;14817;57.104;-2.094;2023-02-28T04:25:04;102928.06;;;4.08;100.00
27334;BME280;14817;57.104;-2.094;2023-02-28T04:27:32;102930.50;;;4.14;100.00
27334;BME280;14817;57.104;-2.094;2023-02-28T04:29:59;102922.47;;;4.16;100.00
27334;BME280;14817;57.104;-2.094;2023-02-28T04:32:26;102919.66;;;4.20;100.00
27334;BME280;14817;57.104;-2.094;2023-02-28T04:34:53;102914.44;;;4.19;100.00
27334;BME280;14817;57.104;-2.094;2023-02-28T04:37:19;102919.00;;;4.14;100.00
27334;BME280;14817;57.104;-2.094;2023-02-28T04:39:46;102921.72;;;4.12;100.00
27334;BME280;14817;57.104;-2.094;2023-02-28T04:42:13;102922.44;;;4.17;100.00
27334;BME280;14817;57.104;-2.094;2023-02-28T04:44:41;102915.25;;;4.21;100.00
27334;BME280;14817;57.104;-2.094;2023-02-28T04:47:07;102921.38;;;4.23;100.00
27334;BME280;14817;57.104;-2.094;2023-02-28T04:49:34;102921.38;;;4.23;100.00
27334;BME280;14817;57.104;-2.094;2023-02-28T04:52:01;102927.63;;;4.20;100.00
27334;BME280;14817;57.104;-2.094;2023-02-28T04:54:28;102920.28;;;4.28;100.00
27334;BME280;14817;57.104;-2.094;2023-02-28T04:56:55;102931.81;;;4.27;100.00
27334;BME280;14817;57.104;-2.094;2023-02-28T04:59:22;102929.16;;;4.27;100.00
27334;BME280;14817;57.104;-2.094;2023-02-28T05:01:49;102935.16;;;4.33;100.00
27334;BME280;14817;57.104;-2.094;2023-02-28T05:04:16;102935.78;;;4.41;100.00
27334;BME280;14817;57.104;-2.094;2023-02-28T05:06:44;102943.84;;;4.38;100.00
27334;BME280;14817;57.104;-2.094;2023-02-28T05:09:11;102943.03;;;4.36;100.00
27334;BME280;14817;57.104;-2.094;2023-02-28T05:11:39;102937.63;;;4.39;100.00
27334;BME280;14817;57.104;-2.094;2023-02-28T05:14:12;102939.66;;;4.30;100.00
27334;BME280;14817;57.104;-2.094;2023-02-28T05:16:39;102933.38;;;4.33;100.00
27334;BME280;14817;57.104;-2.094;2023-02-28T05:19:05;102939.78;;;4.27;100.00
27334;BME280;14817;57.104;-2.094;2023-02-28T05:21:34;102942.28;;;4.32;100.00
27334;BME280;14817;57.104;-2.094;2023-02-28T05:24:04;102938.69;;;4.33;100.00
27334;BME280;14817;57.104;-2.094;2023-02-28T05:26:38;102938.97;;;4.25;100.00
27334;BME280;14817;57.104;-2.094;2023-02-28T05:29:06;102939.66;;;4.30;100.00
27334;BME280;14817;57.104;-2.094;2023-02-28T05:31:33;102944.81;;;4.35;100.00
27334;BME280;14817;57.104;-2.094;2023-02-28T05:34:00;102939.78;;;4.27;100.00
27334;BME280;14817;57.104;-2.094;2023-02-28T05:36:27;102942.63;;;4.21;100.00
27334;BME280;14817;57.104;-2.094;2023-02-28T05:38:54;102940.19;;;4.15;100.00
27334;BME280;14817;57.104;-2.094;2023-02-28T05:41:21;102942.59;;;4.23;100.00
27334;BME280;14817;57.104;-2.094;2023-02-28T05:43:48;102935.25;;;4.31;100.00
27334;BME280;14817;57.104;-2.094;2023-02-28T05:46:15;102937.13;;;4.27;100.00
27334;BME280;14817;57.104;-2.094;2023-02-28T05:48:46;102934.25;;;4.34;100.00
27334;BME280;14817;57.104;-2.094;2023-02-28T05:51:13;102939.94;;;4.23;100.00
27334;BME280;14817;57.104;-2.094;2023-02-28T05:53:40;102930.81;;;4.32;100.00
27334;BME280;14817;57.104;-2.094;2023-02-28T05:56:06;102930.34;;;4.19;100.00
27334;BME280;14817;57.104;-2.094;2023-02-28T05:58:33;102932.03;;;4.21;100.00
27334;BME280;14817;57.104;-2.094;2023-02-28T06:01:20;102931.41;;;4.13;100.00
27334;BME280;14817;57.104;-2.094;2023-02-28T06:03:47;102934.00;;;4.15;100.00
27334;BME280;14817;57.104;-2.094;2023-02-28T06:06:14;102932.03;;;4.21;100.00
27334;BME280;14817;57.104;-2.094;2023-02-28T06:08:40;102938.34;;;4.17;100.00
27334;BME280;14817;57.104;-2.094;2023-02-28T06:11:09;102946.66;;;4.06;100.00
27334;BME280;14817;57.104;-2.094;2023-02-28T06:13:36;102944.63;;;4.15;100.00
27334;BME280;14817;57.104;-2.094;2023-02-28T06:16:03;102949.78;;;4.19;100.00
27334;BME280;14817;57.104;-2.094;2023-02-28T06:18:30;102947.50;;;4.07;100.00
27334;BME280;14817;57.104;-2.094;2023-02-28T06:20:57;102943.81;;;4.13;100.00
27334;BME280;14817;57.104;-2.094;2023-02-28T06:23:23;102944.94;;;4.05;100.00
27334;BME280;14817;57.104;-2.094;2023-02-28T06:25:50;102943.88;;;4.09;100.00
27334;BME280;14817;57.104;-2.094;2023-02-28T06:28:17;102951.28;;;4.00;100.00
27334;BME280;14817;57.104;-2.094;2023-02-28T06:30:44;102953.00;;;4.01;100.00
27334;BME280;14817;57.104;-2.094;2023-02-28T06:33:12;102957.25;;;4.06;100.00
27334;BME280;14817;57.104;-2.094;2023-02-28T06:35:38;102953.91;;;4.01;100.00
27334;BME280;14817;57.104;-2.094;2023-02-28T06:38:05;102963.53;;;4.04;100.00
27334;BME280;14817;57.104;-2.094;2023-02-28T06:40:32;102962.41;;;4.11;100.00
27334;BME280;14817;57.104;-2.094;2023-02-28T06:43:01;102958.03;;;4.10;100.00
27334;BME280;14817;57.104;-2.094;2023-02-28T06:45:28;102955.75;;;3.99;100.00
27334;BME280;14817;57.104;-2.094;2023-02-28T06:47:55;102961.88;;;4.01;100.00
27334;BME280;14817;57.104;-2.094;2023-02-28T06:50:22;102963.72;;;3.98;100.00
27334;BME280;14817;57.104;-2.094;2023-02-28T06:52:49;102957.66;;;3.94;100.00
27334;BME280;14817;57.104;-2.094;2023-02-28T06:55:20;102974.34;;;3.98;100.00
27334;BME280;14817;57.104;-2.094;2023-02-28T06:57:47;102972.38;;;4.03;100.00
27334;BME280;14817;57.104;-2.094;2023-02-28T07:00:14;102970.88;;;3.96;100.00
27334;BME280;14817;57.104;-2.094;2023-02-28T07:02:41;102972.47;;;4.01;100.00
27334;BME280;14817;57.104;-2.094;2023-02-28T07:05:08;102970.47;;;4.08;100.00
27334;BME280;14817;57.104;-2.094;2023-02-28T07:07:35;102977.78;;;4.01;100.00
27334;BME280;14817;57.104;-2.094;2023-02-28T07:10:04;102976.94;;;3.99;100.00
27334;BME280;14817;57.104;-2.094;2023-02-28T07:12:32;102977.63;;;4.06;100.00
27334;BME280;14817;57.104;-2.094;2023-02-28T07:14:59;102978.63;;;4.02;100.00
27334;BME280;14817;57.104;-2.094;2023-02-28T07:17:25;102988.06;;;4.11;100.00
27334;BME280;14817;57.104;-2.094;2023-02-28T07:19:52;102988.84;;;4.14;100.00
27334;BME280;14817;57.104;-2.094;2023-02-28T07:22:19;102989.94;;;4.07;100.00
27334;BME280;14817;57.104;-2.094;2023-02-28T07:24:46;102986.38;;;4.08;100.00
27334;BME280;14817;57.104;-2.094;2023-02-28T07:27:12;102991.38;;;4.17;100.00
27334;BME280;14817;57.104;-2.094;2023-02-28T07:29:52;102997.47;;;4.21;100.00
27334;BME280;14817;57.104;-2.094;2023-02-28T07:32:20;102986.78;;;4.22;100.00
27334;BME280;14817;57.104;-2.094;2023-02-28T07:34:47;102997.50;;;4.19;100.00
27334;BME280;14817;57.104;-2.094;2023-02-28T07:37:14;102999.19;;;4.22;100.00
27334;BME280;14817;57.104;-2.094;2023-02-28T07:39:41;102994.19;;;4.39;100.00
27334;BME280;14817;57.104;-2.094;2023-02-28T07:42:08;102999.66;;;4.35;100.00
27334;BME280;14817;57.104;-2.094;2023-02-28T07:44:39;102996.91;;;4.38;100.00
27334;BME280;14817;57.104;-2.094;2023-02-28T07:47:08;103004.09;;;4.34;100.00
27334;BME280;14817;57.104;-2.094;2023-02-28T07:49:38;102988.13;;;4.87;100.00
27334;BME280;14817;57.104;-2.094;2023-02-28T07:52:06;102992.44;;;5.84;100.00
27334;BME280;14817;57.104;-2.094;2023-02-28T07:54:33;103001.09;;;6.13;100.00
27334;BME280;14817;57.104;-2.094;2023-02-28T07:57:00;102998.66;;;6.29;100.00
27334;BME280;14817;57.104;-2.094;2023-02-28T07:59:27;102997.88;;;6.05;100.00
27334;BME280;14817;57.104;-2.094;2023-02-28T08:01:58;102991.84;;;6.85;100.00
27334;BME280;14817;57.104;-2.094;2023-02-28T08:04:25;102993.72;;;7.03;100.00
27334;BME280;14817;57.104;-2.094;2023-02-28T08:06:52;102999.69;;;8.05;100.00
27334;BME280;14817;57.104;-2.094;2023-02-28T08:09:19;103000.41;;;7.89;100.00
27334;BME280;14817;57.104;-2.094;2023-02-28T08:11:46;102998.53;;;7.91;100.00
27334;BME280;14817;57.104;-2.094;2023-02-28T08:14:13;103007.84;;;6.64;100.00
27334;BME280;14817;57.104;-2.094;2023-02-28T08:16:40;103010.44;;;6.23;100.00
27334;BME280;14817;57.104;-2.094;2023-02-28T08:19:06;103005.72;;;6.08;100.00
27334;BME280;14817;57.104;-2.094;2023-02-28T08:21:33;103007.59;;;5.82;100.00
27334;BME280;14817;57.104;-2.094;2023-02-28T08:24:00;103004.84;;;5.85;100.00
27334;BME280;14817;57.104;-2.094;2023-02-28T08:26:27;103010.06;;;5.65;100.00
27334;BME280;14817;57.104;-2.094;2023-02-28T08:28:53;103013.34;;;5.95;100.00
27334;BME280;14817;57.104;-2.094;2023-02-28T08:31:22;103013.97;;;5.78;100.00
27334;BME280;14817;57.104;-2.094;2023-02-28T08:33:49;103016.75;;;5.75;100.00
27334;BME280;14817;57.104;-2.094;2023-02-28T08:36:18;103010.44;;;5.78;100.00
27334;BME280;14817;57.104;-2.094;2023-02-28T08:38:45;103015.47;;;5.85;100.00
27334;BME280;14817;57.104;-2.094;2023-02-28T08:41:12;103020.78;;;5.85;100.00
27334;BME280;14817;57.104;-2.094;2023-02-28T08:43:40;103023.50;;;5.84;100.00
27334;BME280;14817;57.104;-2.094;2023-02-28T08:46:11;103023.91;;;5.73;100.00
27334;BME280;14817;57.104;-2.094;2023-02-28T08:48:38;103026.63;;;5.71;100.00
27334;BME280;14817;57.104;-2.094;2023-02-28T08:51:08;103031.91;;;5.49;100.00
27334;BME280;14817;57.104;-2.094;2023-02-28T08:53:37;103032.47;;;5.34;100.00
27334;BME280;14817;57.104;-2.094;2023-02-28T08:56:07;103025.81;;;5.46;100.00
27334;BME280;14817;57.104;-2.094;2023-02-28T08:58:34;103038.03;;;5.51;100.00
27334;BME280;14817;57.104;-2.094;2023-02-28T09:01:11;103032.19;;;5.42;100.00
27334;BME280;14817;57.104;-2.094;2023-02-28T09:03:39;103029.47;;;5.43;100.00
27334;BME280;14817;57.104;-2.094;2023-02-28T09:06:09;103023.16;;;5.46;100.00
27334;BME280;14817;57.104;-2.094;2023-02-28T09:08:36;103021.16;;;5.52;100.00
27334;BME280;14817;57.104;-2.094;2023-02-28T09:11:03;103026.47;;;5.52;100.00
27334;BME280;14817;57.104;-2.094;2023-02-28T09:13:31;103033.06;;;5.66;100.00
27334;BME280;14817;57.104;-2.094;2023-02-28T09:16:00;103030.69;;;5.58;100.00
27334;BME280;14817;57.104;-2.094;2023-02-28T09:18:28;103027.97;;;5.60;100.00
27334;BME280;14817;57.104;-2.094;2023-02-28T09:20:56;103034.34;;;5.56;100.00
27334;BME280;14817;57.104;-2.094;2023-02-28T09:23:24;103029.03;;;5.56;100.00
27334;BME280;14817;57.104;-2.094;2023-02-28T09:25:53;103032.72;;;5.75;100.00
27334;BME280;14817;57.104;-2.094;2023-02-28T09:28:21;103033.47;;;5.55;100.00
27334;BME280;14817;57.104;-2.094;2023-02-28T09:30:50;103032.88;;;5.70;100.00
27334;BME280;14817;57.104;-2.094;2023-02-28T09:33:18;103034.50;;;5.98;100.00
27334;BME280;14817;57.104;-2.094;2023-02-28T09:35:49;103038.03;;;5.99;100.00
27334;BME280;14817;57.104;-2.094;2023-02-28T09:38:16;103040.91;;;6.38;100.00
27334;BME280;14817;57.104;-2.094;2023-02-28T09:40:53;103040.97;;;6.15;100.00
27334;BME280;14817;57.104;-2.094;2023-02-28T09:43:22;103042.38;;;6.23;100.00
27334;BME280;14817;57.104;-2.094;2023-02-28T09:45:59;103046.91;;;6.21;100.00
27334;BME280;14817;57.104;-2.094;2023-02-28T09:48:32;103050.28;;;6.25;100.00
27334;BME280;14817;57.104;-2.094;2023-02-28T09:51:13;103054.88;;;6.43;100.00
27334;BME280;14817;57.104;-2.094;2023-02-28T09:53:42;103047.28;;;6.54;100.00
27334;BME280;14817;57.104;-2.094;2023-02-28T09:56:19;103055.78;;;6.85;100.00
27334;BME280;14817;57.104;-2.094;2023-02-28T10:06:52;103060.50;;;6.36;100.00
27334;BME280;14817;57.104;-2.094;2023-02-28T10:09:29;103066.56;;;6.17;100.00
27334;BME280;14817;57.104;-2.094;2023-02-28T10:12:02;103070.66;;;6.48;100.00
27334;BME280;14817;57.104;-2.094;2023-02-28T10:14:33;103068.38;;;6.81;100.00
27334;BME280;14817;57.104;-2.094;2023-02-28T10:17:17;103062.94;;;7.44;100.00
27334;BME280;14817;57.104;-2.094;2023-02-28T10:19:59;103057.31;;;7.90;100.00
27334;BME280;14817;57.104;-2.094;2023-02-28T10:22:29;103053.84;;;7.88;100.00
27334;BME280;14817;57.104;-2.094;2023-02-28T10:24:59;103055.25;;;8.33;100.00
27334;BME280;14817;57.104;-2.094;2023-02-28T10:27:32;103054.53;;;9.18;100.00
27334;BME280;14817;57.104;-2.094;2023-02-28T10:30:01;103054.56;;;9.34;100.00
27334;BME280;14817;57.104;-2.094;2023-02-28T10:32:33;103050.03;;;8.49;100.00
27334;BME280;14817;57.104;-2.094;2023-02-28T10:37:41;103055.06;;;8.00;100.00
27334;BME280;14817;57.104;-2.094;2023-02-28T10:45:56;103060.16;;;8.23;100.00
27334;BME280;14817;57.104;-2.094;2023-02-28T10:48:39;103055.72;;;8.77;100.00
27334;BME280;14817;57.104;-2.094;2023-02-28T10:51:11;103050.75;;;8.87;100.00
27334;BME280;14817;57.104;-2.094;2023-02-28T10:53:48;103055.03;;;8.18;100.00
27334;BME280;14817;57.104;-2.094;2023-02-28T10:56:27;103060.59;;;8.33;100.00
27334;BME280;14817;57.104;-2.094;2023-02-28T10:59:24;103069.56;;;8.13;100.00
27334;BME280;14817;57.104;-2.094;2023-02-28T11:01:53;103065.22;;;8.10;100.00
27334;BME280;14817;57.104;-2.094;2023-02-28T11:07:15;103061.53;;;7.56;100.00
27334;BME280;14817;57.104;-2.094;2023-02-28T11:09:51;103061.84;;;7.69;100.00
27334;BME280;14817;57.104;-2.094;2023-02-28T11:12:42;103063.94;;;7.62;100.00
27334;BME280;14817;57.104;-2.094;2023-02-28T11:15:24;103066.47;;;7.26;100.00
27334;BME280;14817;57.104;-2.094;2023-02-28T11:20:38;103062.47;;;7.15;100.00
27334;BME280;14817;57.104;-2.094;2023-02-28T11:23:12;103053.25;;;7.43;100.00
27334;BME280;14817;57.104;-2.094;2023-02-28T11:25:40;103061.78;;;7.31;100.00
27334;BME280;14817;57.104;-2.094;2023-02-28T11:28:35;103065.66;;;7.24;100.00
27334;BME280;14817;57.104;-2.094;2023-02-28T11:31:16;103064.75;;;7.44;100.00
27334;BME280;14817;57.104;-2.094;2023-02-28T11:33:54;103070.94;;;7.44;100.00
27334;BME280;14817;57.104;-2.094;2023-02-28T11:36:23;103067.69;;;7.38;100.00
27334;BME280;14817;57.104;-2.094;2023-02-28T11:38:53;103074.84;;;7.37;100.00
27334;BME280;14817;57.104;-2.094;2023-02-28T11:44:22;103075.47;;;7.63;100.00
27334;BME280;14817;57.104;-2.094;2023-02-28T11:46:56;103077.81;;;7.50;100.00
27334;BME280;14817;57.104;-2.094;2023-02-28T11:52:40;103063.56;;;7.70;100.00
27334;BME280;14817;57.104;-2.094;2023-02-28T12:11:59;103060.00;;;7.50;100.00
27334;BME280;14817;57.104;-2.094;2023-02-28T12:17:25;103056.13;;;7.39;100.00
27334;BME280;14817;57.104;-2.094;2023-02-28T12:27:37;103052.44;;;7.21;100.00
27334;BME280;14817;57.104;-2.094;2023-02-28T12:33:03;103063.00;;;7.24;100.00
27334;BME280;14817;57.104;-2.094;2023-02-28T12:38:17;103061.34;;;7.21;100.00
27334;BME280;14817;57.104;-2.094;2023-02-28T12:40:53;103056.91;;;7.00;100.00
27334;BME280;14817;57.104;-2.094;2023-02-28T12:43:22;103053.63;;;7.15;100.00
27334;BME280;14817;57.104;-2.094;2023-02-28T12:48:46;103043.81;;;6.95;100.00
27334;BME280;14817;57.104;-2.094;2023-02-28T12:51:15;103046.41;;;6.97;100.00
27334;BME280;14817;57.104;-2.094;2023-02-28T12:59:03;103041.63;;;7.05;100.00
27334;BME280;14817;57.104;-2.094;2023-02-28T13:01:44;103035.22;;;6.88;100.00
27334;BME280;14817;57.104;-2.094;2023-02-28T13:09:22;103048.41;;;7.12;100.00
27334;BME280;14817;57.104;-2.094;2023-02-28T13:11:53;103038.41;;;7.17;100.00
27334;BME280;14817;57.104;-2.094;2023-02-28T13:14:36;103054.09;;;7.04;100.00
27334;BME280;14817;57.104;-2.094;2023-02-28T13:22:16;103046.88;;;7.06;100.00
27334;BME280;14817;57.104;-2.094;2023-02-28T13:24:47;103037.78;;;7.31;100.00
27334;BME280;14817;57.104;-2.094;2023-02-28T13:29:44;103036.81;;;7.13;100.00
27334;BME280;14817;57.104;-2.094;2023-02-28T13:35:34;103034.22;;;7.11;100.00
27334;BME280;14817;57.104;-2.094;2023-02-28T13:37:36;103032.78;;;7.23;100.00
27334;BME280;14817;57.104;-2.094;2023-02-28T13:42:47;103027.16;;;7.50;100.00
27334;BME280;14817;57.104;-2.094;2023-02-28T13:45:29;103029.56;;;7.35;100.00
27334;BME280;14817;57.104;-2.094;2023-02-28T13:48:18;103019.88;;;7.14;100.00
27334;BME280;14817;57.104;-2.094;2023-02-28T13:50:45;103027.13;;;7.31;100.00
27334;BME280;14817;57.104;-2.094;2023-02-28T13:58:54;103015.41;;;7.14;100.00
27334;BME280;14817;57.104;-2.094;2023-02-28T14:01:43;103019.91;;;6.93;100.00
27334;BME280;14817;57.104;-2.094;2023-02-28T14:07:00;103023.28;;;6.97;100.00
27334;BME280;14817;57.104;-2.094;2023-02-28T14:09:54;103017.56;;;6.86;100.00
27334;BME280;14817;57.104;-2.094;2023-02-28T14:18:06;103018.22;;;6.91;100.00
27334;BME280;14817;57.104;-2.094;2023-02-28T14:20:40;103021.03;;;6.67;100.00
27334;BME280;14817;57.104;-2.094;2023-02-28T14:23:32;103020.66;;;6.77;100.00
27334;BME280;14817;57.104;-2.094;2023-02-28T14:26:03;103023.97;;;6.82;100.00
27334;BME280;14817;57.104;-2.094;2023-02-28T14:28:53;103020.78;;;6.94;100.00
27334;BME280;14817;57.104;-2.094;2023-02-28T14:31:37;103008.31;;;6.94;100.00
27334;BME280;14817;57.104;-2.094;2023-02-28T14:34:29;102998.78;;;7.09;100.00
27334;BME280;14817;57.104;-2.094;2023-02-28T14:37:00;103001.00;;;6.79;100.00
27334;BME280;14817;57.104;-2.094;2023-02-28T14:39:30;102998.50;;;6.95;100.00
27334;BME280;14817;57.104;-2.094;2023-02-28T14:41:57;102987.66;;;7.00;100.00
27334;BME280;14817;57.104;-2.094;2023-02-28T14:44:31;102990.31;;;7.00;100.00
27334;BME280;14817;57.104;-2.094;2023-02-28T14:47:02;102990.09;;;7.25;100.00
27334;BME280;14817;57.104;-2.094;2023-02-28T14:49:36;102986.25;;;7.11;100.00
27334;BME280;14817;57.104;-2.094;2023-02-28T14:54:44;102989.50;;;7.18;100.00
27334;BME280;14817;57.104;-2.094;2023-02-28T14:57:25;102989.13;;;6.86;100.00
27334;BME280;14817;57.104;-2.094;2023-02-28T15:02:41;102986.00;;;6.97;100.00
27334;BME280;14817;57.104;-2.094;2023-02-28T15:07:45;102990.53;;;6.95;100.00
27334;BME280;14817;57.104;-2.094;2023-02-28T15:13:00;102986.78;;;6.99;100.00
27334;BME280;14817;57.104;-2.094;2023-02-28T15:15:52;102988.34;;;7.05;100.00
27334;BME280;14817;57.104;-2.094;2023-02-28T15:18:51;102992.19;;;6.98;100.00
27334;BME280;14817;57.104;-2.094;2023-02-28T15:21:28;102988.59;;;7.19;100.00
27334;BME280;14817;57.104;-2.094;2023-02-28T15:24:07;102995.66;;;7.00;100.00